createdAt,value
2023-03-03T00:03:04.576Z,80.31
2023-03-03T00:08:06.651Z,80.56
2023-03-03T00:13:16.759Z,80.49
2023-03-03T00:18:36.125Z,80.67
2023-03-03T00:23:40.688Z,80.90
2023-03-03T00:28:52.903Z,80.77
2023-03-03T00:33:57.088Z,80.65
2023-03-03T00:39:38.037Z,80.83
2023-03-03T00:44:45.042Z,80.74
2023-03-03T00:50:07.104Z,80.66
2023-03-03T00:55:12.390Z,80.93
2023-03-03T01:00:15.578Z,81.11
2023-03-03T01:05:18.104Z,81.32
2023-03-03T01:10:20.037Z,81.04
2023-03-03T01:15:22.060Z,81.48
2023-03-03T01:20:23.992Z,81.32
2023-03-03T01:25:25.967Z,81.60
2023-03-03T01:30:28.586Z,81.90
2023-03-03T01:35:31.009Z,81.80
2023-03-03T01:40:32.935Z,82.17
2023-03-03T01:45:58.067Z,82.16
2023-03-03T01:51:09.786Z,82.15
2023-03-03T01:56:12.690Z,82.25
2023-03-03T02:01:20.623Z,82.08
2023-03-03T02:06:30.660Z,82.18
2023-03-03T02:11:34.940Z,82.26
2023-03-03T02:16:36.883Z,82.50
2023-03-03T02:21:38.872Z,82.79
2023-03-03T02:26:42.201Z,82.66
2023-03-03T02:31:45.285Z,82.90
2023-03-03T02:36:47.374Z,83.00
2023-03-03T02:42:23.824Z,82.94
2023-03-03T02:47:29.034Z,83.05
2023-03-03T02:52:31.003Z,83.28
2023-03-03T02:57:33.007Z,83.41
2023-03-03T03:02:35.097Z,83.30
2023-03-03T03:07:38.088Z,83.39
2023-03-03T03:12:40.890Z,83.79
2023-03-03T03:17:44.331Z,83.89
2023-03-03T03:22:47.725Z,83.97
2023-03-03T03:27:49.800Z,83.53
2023-03-03T03:32:51.996Z,83.85
2023-03-03T03:37:54.322Z,83.99
2023-03-03T03:42:56.924Z,83.74
2023-03-03T03:47:59.093Z,84.06
2023-03-03T03:53:01.694Z,83.99
2023-03-03T03:58:05.330Z,83.90
2023-03-03T04:03:08.858Z,84.01
2023-03-03T04:08:11.538Z,83.98
2023-03-03T04:13:13.704Z,84.21
2023-03-03T04:18:15.784Z,84.22
2023-03-03T04:23:21.196Z,84.30
2023-03-03T04:28:25.229Z,84.16
2023-03-03T04:33:27.472Z,84.26
2023-03-03T04:38:29.940Z,84.27
2023-03-03T04:43:32.053Z,84.21
2023-03-03T04:48:35.429Z,84.57
2023-03-03T04:53:38.413Z,84.42
2023-03-03T04:58:41.181Z,84.39
2023-03-03T05:03:43.299Z,84.47
2023-03-03T05:08:46.789Z,84.77
2023-03-03T05:13:48.714Z,84.81
2023-03-03T05:18:50.655Z,84.57
2023-03-03T05:23:52.761Z,84.68
2023-03-03T05:28:54.741Z,85.13
2023-03-03T05:33:56.712Z,85.31
2023-03-03T05:38:58.705Z,85.54
2023-03-03T05:44:00.554Z,85.47
2023-03-03T05:49:02.517Z,85.58
2023-03-03T05:54:04.522Z,85.15
2023-03-03T05:59:06.478Z,85.31
2023-03-03T06:04:08.782Z,85.11
2023-03-03T06:09:10.712Z,85.35
2023-03-03T06:14:12.660Z,85.30
2023-03-03T06:19:15.211Z,85.33
2023-03-03T06:24:17.235Z,85.41
2023-03-03T06:29:19.167Z,85.43
2023-03-03T06:34:21.349Z,85.46
2023-03-03T06:39:23.252Z,85.19
2023-03-03T06:44:27.666Z,85.39
2023-03-03T06:49:30.551Z,85.35
2023-03-03T06:54:32.699Z,85.56
2023-03-03T06:59:34.765Z,85.27
2023-03-03T07:04:36.835Z,85.32
2023-03-03T07:09:38.778Z,85.24
2023-03-03T07:14:47.342Z,85.25
2023-03-03T07:19:50.098Z,85.44
2023-03-03T07:24:54.703Z,85.80
2023-03-03T07:30:27.954Z,85.46
2023-03-03T07:35:39.463Z,85.59
2023-03-03T07:40:56.706Z,85.57
2023-03-03T07:46:11.549Z,85.68
2023-03-03T07:51:22.600Z,85.67
2023-03-03T07:56:35.338Z,85.75
2023-03-03T08:01:43.760Z,85.51
2023-03-03T08:06:48.693Z,85.38
2023-03-03T08:12:19.824Z,85.25
2023-03-03T08:17:24.617Z,85.34
2023-03-03T08:22:36.268Z,85.36
2023-03-03T08:27:38.057Z,85.34
2023-03-03T08:32:39.995Z,85.80
2023-03-03T08:37:42.209Z,85.04
2023-03-03T08:42:44.066Z,85.40
2023-03-03T08:47:46.054Z,85.28
2023-03-03T08:52:48.433Z,85.51
2023-03-03T08:57:50.619Z,85.30
2023-03-03T09:02:53.236Z,85.71
2023-03-03T09:07:55.913Z,85.31
2023-03-03T09:13:02.545Z,85.69
2023-03-03T09:18:20.150Z,85.29
2023-03-03T09:23:42.918Z,85.34
2023-03-03T09:28:45.013Z,84.75
2023-03-03T09:33:55.192Z,84.81
2023-03-03T09:38:57.767Z,84.90
2023-03-03T09:44:06.101Z,84.78
2023-03-03T09:49:59.664Z,84.71
2023-03-03T09:55:27.556Z,84.49
2023-03-03T10:00:41.334Z,84.33
2023-03-03T10:05:58.998Z,84.42
2023-03-03T10:11:41.825Z,84.37
2023-03-03T10:16:54.166Z,84.65
2023-03-03T10:22:06.128Z,84.08
2023-03-03T10:27:54.669Z,84.16
2023-03-03T10:33:05.472Z,84.26
2023-03-03T10:38:19.301Z,84.10
2023-03-03T10:43:36.733Z,84.14
2023-03-03T10:49:30.101Z,83.80
2023-03-03T10:54:56.442Z,83.75
2023-03-03T11:00:20.660Z,83.77
2023-03-03T11:05:35.049Z,83.98
2023-03-03T11:10:58.732Z,84.02
2023-03-03T11:16:21.722Z,83.64
2023-03-03T11:21:34.229Z,83.64
2023-03-03T11:26:51.634Z,83.55
2023-03-03T11:32:00.398Z,83.35
2023-03-03T11:37:08.715Z,83.54
2023-03-03T11:42:29.941Z,83.68
2023-03-03T11:47:56.850Z,83.63
2023-03-03T11:53:27.265Z,83.64
2023-03-03T11:58:40.352Z,83.31
2023-03-03T12:03:53.608Z,83.36
2023-03-03T12:09:17.736Z,83.33
2023-03-03T12:14:57.631Z,82.84
2023-03-03T12:20:25.820Z,82.94
2023-03-03T12:25:42.788Z,82.89
2023-03-03T12:31:06.776Z,82.96
2023-03-03T12:36:21.470Z,82.81
2023-03-03T12:41:37.130Z,82.48
2023-03-03T12:47:02.321Z,82.62
2023-03-03T12:52:29.046Z,82.35
2023-03-03T12:57:52.157Z,82.73
2023-03-03T13:03:06.622Z,82.44
2023-03-03T13:08:12.112Z,82.01
2023-03-03T13:13:37.561Z,81.77
2023-03-03T13:18:51.692Z,82.05
2023-03-03T13:24:19.178Z,82.23
2023-03-03T13:29:27.108Z,81.83
2023-03-03T13:35:03.429Z,81.26
2023-03-03T13:40:19.469Z,81.59
2023-03-03T13:45:50.352Z,81.44
2023-03-03T13:51:15.681Z,80.98
2023-03-03T13:56:20.623Z,81.04
2023-03-03T14:01:53.996Z,80.47
2023-03-03T14:07:03.744Z,80.32
2023-03-03T14:12:21.919Z,80.59
2023-03-03T14:17:34.651Z,80.25
2023-03-03T14:22:46.123Z,79.93
2023-03-03T14:27:48.425Z,80.18
2023-03-03T14:33:08.924Z,79.69
2023-03-03T14:38:24.280Z,79.77
2023-03-03T14:43:33.715Z,79.75
2023-03-03T14:48:51.076Z,80.11
2023-03-03T14:53:53.930Z,79.91
2023-03-03T14:59:14.721Z,80.00
2023-03-03T15:04:20.362Z,79.74
2023-03-03T15:09:48.991Z,79.52
2023-03-03T15:15:05.860Z,79.86
2023-03-03T15:20:43.863Z,80.03
2023-03-03T15:26:01.313Z,80.08
2023-03-03T15:31:15.360Z,80.42
2023-03-03T15:36:41.336Z,80.80
2023-03-03T15:41:43.422Z,80.96
2023-03-03T15:46:52.271Z,80.90
2023-03-03T15:52:22.637Z,80.98
2023-03-03T15:57:45.790Z,81.05
2023-03-03T16:02:58.720Z,81.12
2023-03-03T16:08:22.707Z,81.43
2023-03-03T16:13:36.359Z,81.53
2023-03-03T16:18:59.420Z,81.59
2023-03-03T16:24:29.146Z,81.69
2023-03-03T16:29:36.286Z,81.81
2023-03-03T16:34:54.720Z,81.79
2023-03-03T16:40:10.023Z,81.83
2023-03-03T16:45:26.779Z,82.27
2023-03-03T16:50:54.398Z,82.08
2023-03-03T16:56:18.847Z,82.45
2023-03-03T17:01:48.988Z,82.49
2023-03-03T17:06:55.514Z,82.66
2023-03-03T17:12:01.619Z,82.83
2023-03-03T17:17:26.689Z,82.54
2023-03-03T17:23:06.471Z,82.88
2023-03-03T17:28:29.120Z,82.71
2023-03-03T17:33:35.095Z,83.02
2023-03-03T17:38:51.050Z,82.65
2023-03-03T17:44:18.080Z,82.63
2023-03-03T17:49:59.363Z,82.96
2023-03-03T17:55:42.937Z,82.81
2023-03-03T18:01:00.672Z,83.21
2023-03-03T18:06:24.251Z,83.11
2023-03-03T18:11:52.763Z,83.23
2023-03-03T18:17:05.606Z,82.95
2023-03-03T18:22:14.080Z,82.98
2023-03-03T18:27:25.882Z,83.10
2023-03-03T18:32:41.850Z,83.06
2023-03-03T18:37:45.609Z,82.96
2023-03-03T18:42:49.942Z,83.06
2023-03-03T18:48:01.606Z,83.08
2023-03-03T18:53:15.886Z,82.92
2023-03-03T18:58:21.182Z,83.46
2023-03-03T19:03:29.848Z,83.01
2023-03-03T19:08:53.936Z,83.35
2023-03-03T19:14:15.351Z,83.22
2023-03-03T19:19:20.265Z,83.20
2023-03-03T19:25:01.544Z,83.12
2023-03-03T19:30:27.017Z,83.52
2023-03-03T19:35:37.871Z,83.25
2023-03-03T19:41:00.769Z,83.33
2023-03-03T19:46:13.290Z,83.14
2023-03-03T19:51:25.312Z,83.37
2023-03-03T19:56:47.447Z,83.46
2023-03-03T20:02:12.701Z,83.10
2023-03-03T20:08:00.035Z,83.42
2023-03-03T20:13:24.482Z,83.66
2023-03-03T20:18:42.240Z,83.26
2023-03-03T20:24:06.902Z,83.52
2023-03-03T20:29:26.147Z,83.72
2023-03-03T20:34:41.588Z,83.48
2023-03-03T20:39:43.888Z,83.63
2023-03-03T20:45:09.810Z,83.32
2023-03-03T20:50:26.131Z,83.34
2023-03-03T20:55:57.588Z,83.39
2023-03-03T21:01:10.494Z,83.40
2023-03-03T21:06:15.698Z,83.47
2023-03-03T21:11:21.304Z,83.74
2023-03-03T21:16:23.224Z,83.37
2023-03-03T21:21:27.744Z,83.39
2023-03-03T21:26:50.170Z,83.47
2023-03-03T21:31:59.462Z,83.67
2023-03-03T21:37:06.911Z,83.36
2023-03-03T21:42:30.496Z,83.45
2023-03-03T21:47:35.615Z,83.42
2023-03-03T21:52:39.044Z,83.50
2023-03-03T21:57:41.941Z,83.20
2023-03-03T22:02:44.156Z,83.29
2023-03-03T22:07:46.690Z,83.38
2023-03-03T22:12:53.945Z,83.51
2023-03-03T22:18:02.659Z,83.43
2023-03-03T22:23:05.199Z,83.66
2023-03-03T22:28:07.853Z,83.34
2023-03-03T22:33:10.424Z,83.33
2023-03-03T22:38:12.543Z,83.05
2023-03-03T22:43:21.958Z,83.67
2023-03-03T22:48:26.754Z,83.51
2023-03-03T22:53:32.770Z,83.18
2023-03-03T22:58:34.780Z,83.19
2023-03-03T23:03:37.310Z,83.36
2023-03-03T23:08:39.501Z,83.44
2023-03-03T23:13:41.670Z,83.34
2023-03-03T23:18:43.821Z,83.64
2023-03-03T23:23:46.229Z,83.93
2023-03-03T23:28:48.326Z,83.95
2023-03-03T23:33:50.408Z,83.90
2023-03-03T23:38:52.518Z,83.99
2023-03-03T23:43:54.461Z,84.19
2023-03-03T23:48:56.683Z,84.23
2023-03-03T23:53:59.416Z,84.20
2023-03-03T23:59:01.618Z,83.96
